Don's Testing Zone


Current Conditions
weather data
source:

National Weather Service
Mostly Cloudy Little Rock, AR
Mostly Cloudy, 77°F
Sunday, May 20, 2018 7:53 AM CDT
Temperature: 77°F/25°C
Humidity: 83%
Barometer: 30.04in/1017.2mb Barometer Steady
Wind: W at 5mph/7kmh
View other cities:
Searcy | Little Rock | Hot Springs | Russellville | More...
Astronomical Conditions (Clear Sky Clock)
Searcy Clear Sky Clock
Find more weather in Little Rock, AR
    

Radar Images

NWS
    Wx Underground

KARK
   

Solar-Terrestrial Data

NWS METAR weather data

ADDS - METARS form results





Aviation Digital Data Service (ADDS) Output produced by METARs form (1338 UTC 20 May 2018) found at http://aviationweather.gov/adds/metars/ 

KLIT 201253Z 25004KT 10SM BKN250 25/22 A3004 RMK AO2 SLP172 T02500217

KLIT 201153Z 22007KT 10SM BKN250 23/21 A3003 RMK AO2 SLP167 T02330211 1023920211 53008

KLIT 201053Z 21006KT 7SM SCT120 SCT250 22/21 A3002 RMK AO2 SLP163 T02170206

KLIT 200953Z 00000KT 7SM SCT120 22/21 A3001 RMK AO2 SLP161 T02220211

KLIT 200853Z 00000KT 9SM CLR 22/21 A3000 RMK AO2 SLP159 T02170211 53007

KLIT 200753Z 14003KT 10SM BKN120 22/21 A2999 RMK AO2 SLP156 T02170206

KLIT 200653Z 00000KT 10SM SCT120 23/21 A2998 RMK AO2 SLP152 T02280211

KLIT 200553Z 00000KT 10SM SCT120 24/21 A2998 RMK AO2 SLP151 T02390211 1030620233 403330200 50002

KLIT 200453Z 00000KT 10SM FEW150 24/21 A2998 RMK AO2 SLP152 T02390211

KLIT 200353Z 18006KT 10SM FEW150 25/21 A2999 RMK AO2 SLP154 T02500211

KLIT 200253Z 16004KT 10SM FEW150 25/21 A2997 RMK AO2 SLP149 T02500211 51026

KLIT 200153Z 17005KT 10SM BKN150 27/21 A2995 RMK AO2 SLP142 T02670211

KLIT 200053Z 19005KT 10SM BKN150 28/21 A2993 RMK AO2 SLP135 T02830211

KLIT 192353Z 17007KT 10SM FEW150 FEW250 31/19 A2989 RMK AO2 SLP122 T0306019410333 20306 53003

KLIT 192253Z 21009KT 10SM FEW250 32/18 A2988 RMK AO2 SLP119 T03220178

KLIT 192153Z 22010G16KT 10SM FEW170 SCT250 33/18 A2988 RMK AO2 SLP116 T03280178

KLIT 192053Z 21012G19KT 10SM FEW170 SCT250 33/17 A2989 RMK AO2 SLP120 T0328016756015

KLIT 191953Z 21009KT 10SM FEW060 SCT120 BKN250 33/18 A2990 RMK AO2 SLP123T03280178

KLIT 191853Z 19009G15KT 10SM FEW060 FEW150 BKN250 33/18 A2992 RMK AO2 SLP130T03280178

KLIT 191753Z 19011KT 10SM FEW060 FEW150 BKN250 32/18 A2993 RMK AO2 SLP135T03220178 10322 20217 50000

KLIT 191653Z 17007KT 10SM FEW150 BKN250 31/20 A2994 RMK AO2 SLP137 T03060200

KLIT 191553Z 22006KT 10SM SCT250 29/21 A2993 RMK AO2 SLP133 T02890211

KLIT 191453Z VRB05KT 10SM FEW120 SCT250 28/22 A2993 RMK AO2 SLP135 T0278021751022

KLIT 191353Z 22010KT 10SM FEW120 SCT250 26/22 A2992 RMK AO2 SLP131 T02560217